createdAt,value
2023-04-03T00:00:34.964Z,0.60
2023-04-03T00:03:02.554Z,0.82
2023-04-03T00:05:30.102Z,0.70
2023-04-03T00:07:57.334Z,0.60
2023-04-03T00:10:24.608Z,0.63
2023-04-03T00:12:51.926Z,0.63
2023-04-03T00:15:19.240Z,0.70
2023-04-03T00:17:46.889Z,0.80
2023-04-03T00:20:14.203Z,0.90
2023-04-03T00:22:41.462Z,0.95
2023-04-03T00:25:09.170Z,0.90
2023-04-03T00:27:38.179Z,0.80
2023-04-03T00:30:05.831Z,0.85
2023-04-03T00:32:33.333Z,0.95
2023-04-03T00:35:00.825Z,0.80
2023-04-03T00:37:28.088Z,0.70
2023-04-03T00:39:55.625Z,0.88
2023-04-03T00:42:22.908Z,1.00
2023-04-03T00:44:50.459Z,0.77
2023-04-03T00:47:19.020Z,0.80
2023-04-03T00:49:46.685Z,0.90
2023-04-03T00:52:18.026Z,0.70
2023-04-03T00:54:47.710Z,0.90
2023-04-03T00:57:16.338Z,0.80
2023-04-03T00:59:48.627Z,0.77
2023-04-03T01:02:15.875Z,0.93
2023-04-03T01:04:44.413Z,0.80
2023-04-03T01:07:17.522Z,0.75
2023-04-03T01:09:45.074Z,0.85
2023-04-03T01:12:24.619Z,0.70
2023-04-03T01:14:53.152Z,0.80
2023-04-03T01:17:37.045Z,1.08
2023-04-03T01:20:13.526Z,0.80
2023-04-03T01:22:50.179Z,0.80
2023-04-03T01:25:17.537Z,0.57
2023-04-03T01:27:44.766Z,0.90
2023-04-03T01:30:12.558Z,1.08
2023-04-03T01:32:39.865Z,0.80
2023-04-03T01:35:09.068Z,0.70
2023-04-03T01:37:36.380Z,0.70
2023-04-03T01:40:04.225Z,0.90
2023-04-03T01:42:33.804Z,0.90
2023-04-03T01:45:01.258Z,0.88
2023-04-03T01:47:28.562Z,0.90
2023-04-03T01:49:56.091Z,1.10
2023-04-03T01:52:23.354Z,1.00
2023-04-03T01:54:51.544Z,0.80
2023-04-03T01:57:18.851Z,0.70
2023-04-03T01:59:46.207Z,1.05
2023-04-03T02:02:15.626Z,0.90
2023-04-03T02:04:43.021Z,0.80
2023-04-03T02:07:10.382Z,0.90
2023-04-03T02:09:37.594Z,0.90
2023-04-03T02:12:04.899Z,0.90
2023-04-03T02:14:32.198Z,0.80
2023-04-03T02:16:59.527Z,0.90
2023-04-03T02:19:26.827Z,0.90
2023-04-03T02:21:54.136Z,0.95
2023-04-03T02:24:21.489Z,1.00
2023-04-03T02:26:48.761Z,0.80
2023-04-03T02:29:16.027Z,1.10
2023-04-03T02:31:43.303Z,1.13
2023-04-03T02:34:10.574Z,1.05
2023-04-03T02:36:38.344Z,1.00
2023-04-03T02:39:06.367Z,1.38
2023-04-03T02:41:36.496Z,0.98
2023-04-03T02:44:04.482Z,0.95
2023-04-03T02:46:31.955Z,1.23
2023-04-03T02:48:59.316Z,0.77
2023-04-03T02:51:26.722Z,1.17
2023-04-03T02:53:53.982Z,1.10
2023-04-03T02:56:21.525Z,1.10
2023-04-03T02:58:49.223Z,0.93
2023-04-03T03:01:16.640Z,0.90
2023-04-03T03:03:43.933Z,1.10
2023-04-03T03:06:15.791Z,1.10
2023-04-03T03:08:43.151Z,1.10
2023-04-03T03:11:11.062Z,1.23
2023-04-03T03:13:38.318Z,1.02
2023-04-03T03:16:06.497Z,1.15
2023-04-03T03:18:34.105Z,1.10
2023-04-03T03:21:02.407Z,1.17
2023-04-03T03:23:30.875Z,1.65
2023-04-03T03:26:02.555Z,1.25
2023-04-03T03:28:29.891Z,1.30
2023-04-03T03:30:57.189Z,1.25
2023-04-03T03:33:24.862Z,1.20
2023-04-03T03:35:52.191Z,1.50
2023-04-03T03:38:19.516Z,1.40
2023-04-03T03:40:46.768Z,1.30
2023-04-03T03:43:14.030Z,1.45
2023-04-03T03:45:41.278Z,1.50
2023-04-03T03:48:11.050Z,1.75
2023-04-03T03:50:38.378Z,2.60
2023-04-03T03:53:06.260Z,2.38
2023-04-03T03:55:33.562Z,2.03
2023-04-03T03:58:02.211Z,1.80
2023-04-03T04:00:29.808Z,2.03
2023-04-03T04:02:58.721Z,1.85
2023-04-03T04:05:26.643Z,1.70
2023-04-03T04:07:53.919Z,1.80
2023-04-03T04:10:21.425Z,1.90
2023-04-03T04:12:50.282Z,1.77
2023-04-03T04:15:17.873Z,1.92
2023-04-03T04:17:45.296Z,1.80
2023-04-03T04:20:12.845Z,1.27
2023-04-03T04:22:40.286Z,1.70
2023-04-03T04:25:07.788Z,1.50
2023-04-03T04:27:35.285Z,1.50
2023-04-03T04:30:03.829Z,2.00
2023-04-03T04:32:31.203Z,2.00
2023-04-03T04:34:58.568Z,1.83
2023-04-03T04:37:26.053Z,1.88
2023-04-03T04:39:53.323Z,1.95
2023-04-03T04:42:20.742Z,1.73
2023-04-03T04:44:48.100Z,1.08
2023-04-03T04:47:15.975Z,1.63
2023-04-03T04:49:43.266Z,1.55
2023-04-03T04:52:10.576Z,1.65
2023-04-03T04:54:37.908Z,1.50
2023-04-03T04:57:05.228Z,1.30
2023-04-03T04:59:32.612Z,1.58
2023-04-03T05:01:59.964Z,1.88
2023-04-03T05:04:27.327Z,1.30
2023-04-03T05:06:54.569Z,1.15
2023-04-03T05:09:21.932Z,1.77
2023-04-03T05:11:49.232Z,1.90
2023-04-03T05:14:16.500Z,1.80
2023-04-03T05:16:43.913Z,1.13
2023-04-03T05:19:11.317Z,1.23
2023-04-03T05:21:38.668Z,1.67
2023-04-03T05:24:06.156Z,0.90
2023-04-03T05:26:33.584Z,1.45
2023-04-03T05:29:00.915Z,1.52
2023-04-03T05:31:30.590Z,1.60
2023-04-03T05:33:58.582Z,0.90
2023-04-03T05:36:26.632Z,1.40
2023-04-03T05:38:54.425Z,1.48
2023-04-03T05:41:21.891Z,1.25
2023-04-03T05:43:49.378Z,1.35
2023-04-03T05:46:17.960Z,1.10
2023-04-03T05:48:45.729Z,1.48
2023-04-03T05:51:16.087Z,1.10
2023-04-03T05:53:44.318Z,1.10
2023-04-03T05:56:11.539Z,1.23
2023-04-03T05:58:38.826Z,1.88
2023-04-03T06:01:07.042Z,1.30
2023-04-03T06:03:34.859Z,1.40
2023-04-03T06:06:04.659Z,1.58
2023-04-03T06:08:31.935Z,1.73
2023-04-03T06:10:59.241Z,1.90
2023-04-03T06:13:26.560Z,1.63
2023-04-03T06:15:53.950Z,1.38
2023-04-03T06:18:21.613Z,1.35
2023-04-03T06:20:48.864Z,1.60
2023-04-03T06:23:16.339Z,1.65
2023-04-03T06:25:43.594Z,1.58
2023-04-03T06:28:11.382Z,1.58
2023-04-03T06:30:39.390Z,1.27
2023-04-03T06:33:06.987Z,1.02
2023-04-03T06:35:36.042Z,1.40
2023-04-03T06:38:05.592Z,1.60
2023-04-03T06:40:32.940Z,1.20
2023-04-03T06:43:00.325Z,1.02
2023-04-03T06:45:28.649Z,0.82
2023-04-03T06:47:56.701Z,1.25
2023-04-03T06:50:24.033Z,1.05
2023-04-03T06:52:51.607Z,1.35
2023-04-03T06:55:18.936Z,1.30
2023-04-03T06:57:46.430Z,0.70
2023-04-03T07:00:14.224Z,0.90
2023-04-03T07:02:41.932Z,1.40
2023-04-03T07:05:10.098Z,1.13
2023-04-03T07:07:38.840Z,1.20
2023-04-03T07:10:07.301Z,1.40
2023-04-03T07:12:34.631Z,1.30
2023-04-03T07:15:02.195Z,1.33
2023-04-03T07:17:32.317Z,1.40
2023-04-03T07:19:59.616Z,1.23
2023-04-03T07:22:26.910Z,1.00
2023-04-03T07:24:54.149Z,1.42
2023-04-03T07:27:21.459Z,1.45
2023-04-03T07:29:49.692Z,2.13
2023-04-03T07:32:17.234Z,1.52
2023-04-03T07:34:44.574Z,1.05
2023-04-03T07:37:12.045Z,1.10
2023-04-03T07:39:39.287Z,1.15
2023-04-03T07:42:06.639Z,1.10
2023-04-03T07:44:37.951Z,1.30
2023-04-03T07:47:05.301Z,1.45
2023-04-03T07:49:34.004Z,1.48
2023-04-03T07:52:01.309Z,1.27
2023-04-03T07:54:28.590Z,1.30
2023-04-03T07:56:55.926Z,1.10
2023-04-03T07:59:23.167Z,1.40
2023-04-03T08:01:50.418Z,1.33
2023-04-03T08:04:17.728Z,1.85
2023-04-03T08:06:46.819Z,1.60
2023-04-03T08:09:16.189Z,1.55
2023-04-03T08:11:43.826Z,1.75
2023-04-03T08:14:16.529Z,1.20
2023-04-03T08:16:44.814Z,1.40
2023-04-03T08:19:22.292Z,1.38
2023-04-03T08:21:52.532Z,0.95
2023-04-03T08:24:19.819Z,1.45
2023-04-03T08:26:47.085Z,1.10
2023-04-03T08:29:14.839Z,1.20
2023-04-03T08:31:42.101Z,1.30
2023-04-03T08:34:09.773Z,1.25
2023-04-03T08:36:37.104Z,1.17
2023-04-03T08:39:04.590Z,1.30
2023-04-03T08:41:34.779Z,1.10
2023-04-03T08:44:17.362Z,1.20
2023-04-03T08:46:57.888Z,1.75
2023-04-03T08:49:28.795Z,2.22
2023-04-03T08:51:56.720Z,1.48
2023-04-03T08:54:27.038Z,1.10
2023-04-03T08:56:54.509Z,1.20
2023-04-03T08:59:27.352Z,1.35
2023-04-03T09:01:55.438Z,1.02
2023-04-03T09:04:22.769Z,1.63
2023-04-03T09:06:55.965Z,2.17
2023-04-03T09:09:34.716Z,1.48
2023-04-03T09:12:01.936Z,1.38
2023-04-03T09:14:40.322Z,1.50
2023-04-03T09:17:22.072Z,1.55
2023-04-03T09:19:49.336Z,1.60
2023-04-03T09:22:25.222Z,1.90
2023-04-03T09:24:58.149Z,1.70
2023-04-03T09:27:28.669Z,1.15
2023-04-03T09:29:56.965Z,0.85
2023-04-03T09:32:29.029Z,1.20
2023-04-03T09:34:59.747Z,1.10
2023-04-03T09:37:39.744Z,1.50
2023-04-03T09:40:08.658Z,1.10
2023-04-03T09:42:48.860Z,1.40
2023-04-03T09:45:28.503Z,1.23
2023-04-03T09:48:15.945Z,1.30
2023-04-03T09:50:57.641Z,1.27
2023-04-03T09:53:41.423Z,1.10
2023-04-03T09:56:17.435Z,1.60
2023-04-03T09:58:50.889Z,1.30
2023-04-03T10:01:24.568Z,1.23
2023-04-03T10:04:05.474Z,1.63
2023-04-03T10:06:33.691Z,1.70
2023-04-03T10:09:21.684Z,3.00
2023-04-03T10:12:07.866Z,2.28
2023-04-03T10:14:36.589Z,1.80
2023-04-03T10:17:13.029Z,1.60
2023-04-03T10:19:47.516Z,1.10
2023-04-03T10:22:25.153Z,1.50
2023-04-03T10:25:04.632Z,1.08
2023-04-03T10:27:37.322Z,1.20
2023-04-03T10:30:23.216Z,0.90
2023-04-03T10:32:59.715Z,1.45
2023-04-03T10:35:45.546Z,1.20
2023-04-03T10:38:26.295Z,1.00
2023-04-03T10:40:56.449Z,1.08
2023-04-03T10:43:35.615Z,0.90
2023-04-03T10:46:02.979Z,1.17
2023-04-03T10:48:30.576Z,0.80
2023-04-03T10:51:07.461Z,1.35
2023-04-03T10:53:53.635Z,1.02
2023-04-03T10:56:23.494Z,0.80
2023-04-03T10:58:52.502Z,1.08
2023-04-03T11:01:22.914Z,2.05
2023-04-03T11:03:54.072Z,1.00
2023-04-03T11:06:24.750Z,0.95
2023-04-03T11:08:56.160Z,1.48
2023-04-03T11:11:26.828Z,1.40
2023-04-03T11:14:02.484Z,1.30
2023-04-03T11:16:33.559Z,0.80
2023-04-03T11:19:25.220Z,1.00
2023-04-03T11:21:59.590Z,1.17
2023-04-03T11:24:29.019Z,1.00
2023-04-03T11:26:57.907Z,0.88
2023-04-03T11:29:35.148Z,1.00
2023-04-03T11:32:22.197Z,1.20
2023-04-03T11:34:52.563Z,0.80
2023-04-03T11:37:25.855Z,1.10
2023-04-03T11:40:00.437Z,1.00
2023-04-03T11:42:33.332Z,1.27
2023-04-03T11:45:33.725Z,1.00
2023-04-03T11:48:20.864Z,1.10
2023-04-03T11:50:51.517Z,0.88
2023-04-03T11:53:40.294Z,1.02
2023-04-03T11:56:28.908Z,0.73
2023-04-03T11:59:06.615Z,0.73
2023-04-03T12:01:49.455Z,1.10
2023-04-03T12:04:18.116Z,1.00
2023-04-03T12:06:52.005Z,0.93
2023-04-03T12:09:25.826Z,1.20
2023-04-03T12:11:53.934Z,0.93
2023-04-03T12:14:23.729Z,1.10
2023-04-03T12:16:53.064Z,0.82
2023-04-03T12:19:41.161Z,1.00
2023-04-03T12:22:11.533Z,1.10
2023-04-03T12:24:40.747Z,1.17
2023-04-03T12:27:19.954Z,0.90
2023-04-03T12:29:58.193Z,0.90
2023-04-03T12:32:25.502Z,0.93
2023-04-03T12:35:11.623Z,0.88
2023-04-03T12:37:45.012Z,0.80
2023-04-03T12:40:18.157Z,0.90
2023-04-03T12:42:54.555Z,0.90
2023-04-03T12:45:22.770Z,0.80
2023-04-03T12:47:51.304Z,1.05
2023-04-03T12:50:26.902Z,1.52
2023-04-03T12:53:18.222Z,1.40
2023-04-03T12:55:45.671Z,1.30
2023-04-03T12:58:23.969Z,1.05
2023-04-03T13:01:03.170Z,1.10
2023-04-03T13:03:30.966Z,0.95
2023-04-03T13:06:00.743Z,0.90
2023-04-03T13:08:28.175Z,1.13
2023-04-03T13:11:01.640Z,0.90
2023-04-03T13:13:29.294Z,1.00
2023-04-03T13:15:56.698Z,1.80
2023-04-03T13:18:25.802Z,1.05
2023-04-03T13:20:54.012Z,1.20
2023-04-03T13:23:22.404Z,0.68
2023-04-03T13:25:52.769Z,1.38
2023-04-03T13:28:23.523Z,0.80
2023-04-03T13:31:18.048Z,1.10
2023-04-03T13:33:57.667Z,1.33
2023-04-03T13:36:28.403Z,0.98
2023-04-03T13:39:01.664Z,1.40
2023-04-03T13:41:33.644Z,1.55
2023-04-03T13:44:16.424Z,1.65
2023-04-03T13:46:43.759Z,1.50
2023-04-03T13:49:22.091Z,1.30
2023-04-03T13:52:00.368Z,1.38
2023-04-03T13:54:35.309Z,1.48
2023-04-03T13:57:16.995Z,1.30
2023-04-03T13:59:45.025Z,1.35
2023-04-03T14:02:16.729Z,1.33
2023-04-03T14:04:44.044Z,1.23
2023-04-03T14:07:13.296Z,1.30
2023-04-03T14:09:43.952Z,1.00
2023-04-03T14:12:30.088Z,0.88
2023-04-03T14:15:11.631Z,1.50
2023-04-03T14:17:39.057Z,1.20
2023-04-03T14:20:07.144Z,1.52
2023-04-03T14:22:35.931Z,1.05
2023-04-03T14:25:04.334Z,1.45
2023-04-03T14:27:42.382Z,1.27
2023-04-03T14:30:53.534Z,1.35
2023-04-03T14:33:25.481Z,1.25
2023-04-03T14:35:54.042Z,1.30
2023-04-03T14:38:27.201Z,1.65
2023-04-03T14:40:57.110Z,1.52
2023-04-03T14:43:39.138Z,1.30
2023-04-03T14:46:07.091Z,1.40
2023-04-03T14:48:34.421Z,1.17
2023-04-03T14:51:05.672Z,1.58
2023-04-03T14:56:04.065Z,1.10
2023-04-03T14:58:33.152Z,1.45
2023-04-03T15:01:00.612Z,1.55
2023-04-03T15:03:28.289Z,1.40
2023-04-03T15:05:56.035Z,1.50
2023-04-03T15:08:25.091Z,2.15
2023-04-03T15:10:53.861Z,2.05
2023-04-03T15:13:21.595Z,2.20
2023-04-03T15:15:49.122Z,2.40
2023-04-03T15:18:29.089Z,2.42
2023-04-03T15:20:58.321Z,2.70
2023-04-03T15:23:27.052Z,3.15
2023-04-03T15:25:56.355Z,2.33
2023-04-03T15:28:32.527Z,3.42
2023-04-03T15:30:59.876Z,2.90
2023-04-03T15:33:27.580Z,4.28
2023-04-03T15:36:02.700Z,2.70
2023-04-03T15:38:34.424Z,3.22
2023-04-03T15:41:01.709Z,3.75
2023-04-03T15:43:29.015Z,3.38
2023-04-03T15:45:58.548Z,3.15
2023-04-03T15:48:25.932Z,3.20
2023-04-03T15:50:53.500Z,2.03
2023-04-03T15:53:20.768Z,2.67
2023-04-03T15:55:48.208Z,2.55
2023-04-03T15:58:16.087Z,2.95
2023-04-03T16:00:43.522Z,2.35
2023-04-03T16:03:13.450Z,3.00
2023-04-03T16:05:41.515Z,2.97
2023-04-03T16:08:09.109Z,2.28
2023-04-03T16:10:37.855Z,2.17
2023-04-03T16:13:05.941Z,2.33
2023-04-03T16:15:33.727Z,2.83
2023-04-03T16:18:01.163Z,2.55
2023-04-03T16:20:28.873Z,2.55
2023-04-03T16:22:58.031Z,2.70
2023-04-03T16:25:25.398Z,2.13
2023-04-03T16:27:52.780Z,2.35
2023-04-03T16:30:22.308Z,2.80
2023-04-03T16:32:49.703Z,2.97
2023-04-03T16:35:17.120Z,2.55
2023-04-03T16:37:44.460Z,2.40
2023-04-03T16:40:13.257Z,2.85
2023-04-03T16:42:40.854Z,3.33
2023-04-03T16:45:08.800Z,3.42
2023-04-03T16:47:36.103Z,3.55
2023-04-03T16:50:03.486Z,2.83
2023-04-03T16:52:30.835Z,2.45
2023-04-03T16:54:59.903Z,2.72
2023-04-03T16:57:27.272Z,1.75
2023-04-03T16:59:54.812Z,1.40
2023-04-03T17:02:25.522Z,1.80
2023-04-03T17:04:53.926Z,1.38
2023-04-03T17:07:21.914Z,1.30
2023-04-03T17:09:49.492Z,1.77
2023-04-03T17:12:17.168Z,1.60
2023-04-03T17:14:44.738Z,2.30
2023-04-03T17:17:12.071Z,1.95
2023-04-03T17:19:39.862Z,2.00
2023-04-03T17:22:08.151Z,1.63
2023-04-03T17:24:35.936Z,1.77
2023-04-03T17:27:03.404Z,2.13
2023-04-03T17:29:31.066Z,1.92
2023-04-03T17:31:58.361Z,1.20
2023-04-03T17:34:25.684Z,2.08
2023-04-03T17:36:53.023Z,1.77
2023-04-03T17:39:20.340Z,1.70
2023-04-03T17:41:49.326Z,2.38
2023-04-03T17:44:16.628Z,2.45
2023-04-03T17:46:43.994Z,2.75
2023-04-03T17:49:15.055Z,2.20
2023-04-03T17:51:43.053Z,2.15
2023-04-03T17:54:10.401Z,1.92
2023-04-03T17:56:37.741Z,2.30
2023-04-03T17:59:05.145Z,2.13
2023-04-03T18:01:34.067Z,1.55
2023-04-03T18:04:02.728Z,2.67
2023-04-03T18:06:32.622Z,1.45
2023-04-03T18:09:04.298Z,1.35
2023-04-03T18:11:31.932Z,1.75
2023-04-03T18:14:02.393Z,1.50
2023-04-03T18:16:30.466Z,1.70
2023-04-03T18:19:12.133Z,1.98
2023-04-03T18:21:48.603Z,1.60
2023-04-03T18:24:17.666Z,1.77
2023-04-03T18:26:46.788Z,2.00
2023-04-03T18:29:14.243Z,1.90
2023-04-03T18:31:42.894Z,1.85
2023-04-03T18:34:10.314Z,2.22
2023-04-03T18:36:37.583Z,2.47
2023-04-03T18:39:04.842Z,3.15
2023-04-03T18:41:33.352Z,3.40
2023-04-03T18:44:02.750Z,3.45
2023-04-03T18:46:30.131Z,3.20
2023-04-03T18:48:58.094Z,2.72
2023-04-03T18:51:26.299Z,3.00
2023-04-03T18:53:53.612Z,2.90
2023-04-03T18:56:22.405Z,2.90
2023-04-03T18:58:49.783Z,2.60
2023-04-03T19:01:17.397Z,2.58
2023-04-03T19:03:45.055Z,2.55
2023-04-03T19:06:13.095Z,2.67
2023-04-03T19:08:40.788Z,2.42
2023-04-03T19:11:08.039Z,2.80
2023-04-03T19:13:36.819Z,2.20
2023-04-03T19:16:06.754Z,2.20
2023-04-03T19:18:34.062Z,2.00
2023-04-03T19:21:01.390Z,1.80
2023-04-03T19:23:28.616Z,1.77
2023-04-03T19:26:03.294Z,1.65
2023-04-03T19:28:30.802Z,2.50
2023-04-03T19:30:59.163Z,1.70
2023-04-03T19:33:26.983Z,2.03
2023-04-03T19:35:54.426Z,2.15
2023-04-03T19:38:21.919Z,1.90
2023-04-03T19:40:49.410Z,1.52
2023-04-03T19:43:17.442Z,1.92
2023-04-03T19:45:46.574Z,1.92
2023-04-03T19:48:14.234Z,1.42
2023-04-03T19:50:41.600Z,1.50
2023-04-03T19:53:11.868Z,2.00
2023-04-03T19:55:39.414Z,1.85
2023-04-03T19:58:07.129Z,1.73
2023-04-03T20:00:34.586Z,1.80
2023-04-03T20:03:01.954Z,1.98
2023-04-03T20:05:29.254Z,1.70
2023-04-03T20:07:56.622Z,1.85
2023-04-03T20:10:24.138Z,2.00
2023-04-03T20:12:51.434Z,1.00
2023-04-03T20:15:19.033Z,1.10
2023-04-03T20:17:46.383Z,1.10
2023-04-03T20:20:14.772Z,1.27
2023-04-03T20:22:42.237Z,1.17
2023-04-03T20:25:12.288Z,1.50
2023-04-03T20:27:40.358Z,1.77
2023-04-03T20:30:11.735Z,1.35
2023-04-03T20:35:06.583Z,1.17
2023-04-03T20:37:34.025Z,1.77
2023-04-03T20:40:01.326Z,1.17
2023-04-03T20:42:28.712Z,1.20
2023-04-03T20:44:57.403Z,1.83
2023-04-03T20:47:25.120Z,1.40
2023-04-03T20:49:53.799Z,1.48
2023-04-03T20:52:21.307Z,1.30
2023-04-03T20:54:48.608Z,1.50
2023-04-03T20:57:15.870Z,1.13
2023-04-03T20:59:43.818Z,1.48
2023-04-03T21:02:11.450Z,1.30
2023-04-03T21:04:48.397Z,1.20
2023-04-03T21:07:34.695Z,1.45
2023-04-03T21:10:22.456Z,1.20
2023-04-03T21:13:08.629Z,1.10
2023-04-03T21:15:49.262Z,1.17
2023-04-03T21:18:37.233Z,1.50
2023-04-03T21:21:05.049Z,1.30
2023-04-03T21:23:32.987Z,1.23
2023-04-03T21:26:00.999Z,1.00
2023-04-03T21:28:28.355Z,1.27
2023-04-03T21:30:55.856Z,1.38
2023-04-03T21:33:23.113Z,0.80
2023-04-03T21:35:57.703Z,1.13
2023-04-03T21:38:28.285Z,1.42
2023-04-03T21:40:58.559Z,1.30
2023-04-03T21:43:26.790Z,1.35
2023-04-03T21:45:57.643Z,1.40
2023-04-03T21:50:55.004Z,1.23
2023-04-03T21:53:22.662Z,0.93
2023-04-03T21:55:57.535Z,0.73
2023-04-03T21:58:31.155Z,0.80
2023-04-03T22:00:59.242Z,1.23
2023-04-03T22:03:26.549Z,1.10
2023-04-03T22:05:53.919Z,1.10
2023-04-03T22:08:23.464Z,1.10
2023-04-03T22:10:51.436Z,0.90
2023-04-03T22:13:21.302Z,1.20
2023-04-03T22:15:48.726Z,1.05
2023-04-03T22:18:16.296Z,0.68
2023-04-03T22:20:44.180Z,1.02
2023-04-03T22:23:11.649Z,1.35
2023-04-03T22:25:39.019Z,1.00
2023-04-03T22:28:06.352Z,0.63
2023-04-03T22:30:36.067Z,1.20
2023-04-03T22:33:05.859Z,1.25
2023-04-03T22:35:33.216Z,1.50
2023-04-03T22:38:00.485Z,1.13
2023-04-03T22:40:27.717Z,1.10
2023-04-03T22:42:55.018Z,1.05
2023-04-03T22:45:22.416Z,1.10
2023-04-03T22:47:50.050Z,1.08
2023-04-03T22:50:17.359Z,0.88
2023-04-03T22:52:44.654Z,1.00
2023-04-03T22:57:49.084Z,1.23
2023-04-03T23:00:16.965Z,0.90
2023-04-03T23:02:44.232Z,1.10
2023-04-03T23:05:11.501Z,0.90
2023-04-03T23:07:38.746Z,0.90
2023-04-03T23:10:06.257Z,0.93
2023-04-03T23:12:38.513Z,1.17
2023-04-03T23:15:06.116Z,1.40
2023-04-03T23:17:34.240Z,1.20
2023-04-03T23:20:02.033Z,1.15
2023-04-03T23:22:29.349Z,1.30
2023-04-03T23:24:56.609Z,1.00
2023-04-03T23:27:23.916Z,0.85
2023-04-03T23:29:51.340Z,0.90
2023-04-03T23:32:18.618Z,1.08
2023-04-03T23:34:46.023Z,0.90
2023-04-03T23:37:13.559Z,1.20
2023-04-03T23:39:41.077Z,1.10
2023-04-03T23:42:10.917Z,1.00
2023-04-03T23:44:38.410Z,1.10
2023-04-03T23:47:05.961Z,1.02
2023-04-03T23:49:33.206Z,1.20
2023-04-03T23:52:00.878Z,1.42
2023-04-03T23:54:28.149Z,1.23
2023-04-03T23:56:55.559Z,1.20
2023-04-03T23:59:22.857Z,1.00
